createdAt,value
2019-03-16T07:36:05.363Z,99835.50
2019-03-16T07:39:08.739Z,99832.08
2019-03-16T07:42:12.080Z,99839.64
2019-03-16T07:45:15.485Z,99837.86
2019-03-16T07:48:18.888Z,99837.95
2019-03-16T07:51:25.672Z,99838.54
2019-03-16T07:54:31.194Z,99843.08
2019-03-16T07:57:40.115Z,99822.66
2019-03-16T08:00:39.273Z,99850.45
2019-03-16T08:03:42.680Z,99832.02
2019-03-16T08:06:46.211Z,99850.28
2019-03-16T08:09:49.693Z,99842.91
2019-03-16T08:12:53.077Z,99860.47
2019-03-16T08:15:56.383Z,99847.08
2019-03-16T08:18:59.741Z,99854.73
2019-03-16T08:22:03.058Z,99871.16
2019-03-16T08:25:07.437Z,99877.23
2019-03-16T08:28:10.762Z,99881.28
2019-03-16T08:31:15.487Z,99895.86
2019-03-16T08:34:18.887Z,99900.57
2019-03-16T08:37:22.245Z,99905.11
2019-03-16T08:40:25.650Z,99903.02
2019-03-16T08:43:31.930Z,99920.06
2019-03-16T08:46:35.256Z,99897.08
2019-03-16T08:49:38.590Z,99903.69
2019-03-16T08:52:41.972Z,99898.22
2019-03-16T08:55:45.344Z,99895.29
2019-03-16T08:58:48.642Z,99906.45
2019-03-16T09:01:51.986Z,99904.55
2019-03-16T09:04:55.330Z,99899.33
2019-03-16T09:07:58.658Z,99896.59
2019-03-16T09:11:02.028Z,99906.51
2019-03-16T09:14:05.360Z,99907.00
2019-03-16T09:17:09.367Z,99892.98
2019-03-16T09:20:12.960Z,99911.27
2019-03-16T09:23:19.127Z,99899.24
2019-03-16T09:26:22.442Z,99895.45
2019-03-16T09:29:28.752Z,99888.05
2019-03-16T09:32:32.076Z,99874.94
2019-03-16T09:35:35.527Z,99901.91
2019-03-16T09:38:38.894Z,99903.47
2019-03-16T09:41:43.954Z,99900.81
2019-03-16T09:44:47.335Z,99896.92
2019-03-16T09:47:50.655Z,99906.34
2019-03-16T09:50:53.982Z,99905.57
2019-03-16T09:53:57.347Z,99912.75
2019-03-16T09:57:01.843Z,99907.16
2019-03-16T10:00:10.902Z,99912.31
2019-03-16T10:03:14.247Z,99919.67
2019-03-16T10:06:17.585Z,99912.39
2019-03-16T10:09:20.929Z,99907.55
2019-03-16T10:12:24.299Z,99915.86
2019-03-16T10:15:27.672Z,99918.88
2019-03-16T10:18:31.013Z,99912.72
2019-03-16T10:21:34.393Z,99928.55
2019-03-16T10:24:37.726Z,99909.52
2019-03-16T10:27:42.688Z,99904.99
2019-03-16T10:30:49.230Z,99904.73
2019-03-16T10:33:54.167Z,99897.86
2019-03-16T10:37:04.509Z,99904.38
2019-03-16T10:40:18.119Z,99904.10
2019-03-16T10:43:31.818Z,99903.44
2019-03-16T10:46:35.126Z,99898.45
2019-03-16T10:49:38.447Z,99905.82
2019-03-16T10:52:41.853Z,99913.42
2019-03-16T10:55:45.415Z,99916.27
2019-03-16T10:58:56.455Z,99936.97
2019-03-16T11:01:53.793Z,99917.12
2019-03-16T11:04:57.116Z,99928.72
2019-03-16T11:08:00.542Z,99917.05
2019-03-16T11:11:03.926Z,99933.70
2019-03-16T11:14:07.324Z,99932.08
2019-03-16T11:17:12.288Z,99924.19
2019-03-16T11:20:18.985Z,99920.70
2019-03-16T11:23:22.306Z,99904.99
2019-03-16T11:26:25.638Z,99903.67
2019-03-16T11:29:31.600Z,99897.67
2019-03-16T11:32:35.987Z,99908.54
2019-03-16T11:35:39.311Z,99895.34
2019-03-16T11:38:42.684Z,99899.72
2019-03-16T11:41:46.016Z,99898.98
2019-03-16T11:44:52.581Z,99904.72
2019-03-16T11:47:56.136Z,99909.56
2019-03-16T11:51:00.386Z,99892.66
2019-03-16T11:54:03.865Z,99912.02
2019-03-16T11:57:07.204Z,99927.69
2019-03-16T12:00:15.053Z,99909.63
2019-03-16T12:03:18.393Z,99911.45
2019-03-16T12:06:21.776Z,99924.98
2019-03-16T12:09:25.180Z,99915.23
2019-03-16T12:12:28.576Z,99911.76
2019-03-16T12:15:31.893Z,99924.60
2019-03-16T12:18:41.148Z,99931.41
2019-03-16T12:21:44.515Z,99933.40
2019-03-16T12:24:47.855Z,99911.07
2019-03-16T12:27:51.191Z,99945.33
2019-03-16T12:30:54.521Z,99928.30
2019-03-16T12:33:57.843Z,99933.31
2019-03-16T12:37:01.170Z,99940.59
2019-03-16T12:40:07.799Z,99947.39
2019-03-16T12:43:11.162Z,99925.61
2019-03-16T12:46:14.491Z,99931.17
2019-03-16T12:49:17.873Z,99930.22
2019-03-16T12:52:21.192Z,99923.81
2019-03-16T12:55:24.568Z,99934.48
2019-03-16T12:58:28.033Z,99937.59
2019-03-16T13:01:31.297Z,99919.36
2019-03-16T13:04:34.708Z,99917.83
2019-03-16T13:07:41.104Z,99922.83
2019-03-16T13:10:44.659Z,99915.97
2019-03-16T13:13:47.977Z,99916.41
2019-03-16T13:16:51.475Z,99917.72
2019-03-16T13:19:54.847Z,99910.61
2019-03-16T13:22:58.154Z,99907.02
2019-03-16T13:26:01.478Z,99907.53
2019-03-16T13:29:04.812Z,99914.15
2019-03-16T13:32:08.120Z,99896.76
2019-03-16T13:35:11.527Z,99890.80
2019-03-16T13:38:14.907Z,99894.49
2019-03-16T13:41:19.776Z,99896.95
2019-03-16T13:44:23.178Z,99892.50
2019-03-16T13:47:28.246Z,99877.38
2019-03-16T13:50:31.752Z,99877.14
2019-03-16T13:53:35.472Z,99861.97
2019-03-16T13:56:38.986Z,99865.58
2019-03-16T13:59:42.310Z,99854.94
2019-03-16T14:02:45.699Z,99851.75
2019-03-16T14:05:50.366Z,99848.81
2019-03-16T14:08:53.927Z,99850.64
2019-03-16T14:11:57.398Z,99838.14
2019-03-16T14:15:00.728Z,99842.53
2019-03-16T14:18:04.552Z,99827.91
2019-03-16T14:21:10.755Z,99823.45
2019-03-16T14:24:14.103Z,99818.62
2019-03-16T14:27:17.406Z,99809.31
2019-03-16T14:30:39.387Z,99811.72
2019-03-16T14:33:26.923Z,99804.26
2019-03-16T14:36:30.401Z,99797.20
2019-03-16T14:39:33.734Z,99787.70
2019-03-16T14:42:37.407Z,99795.01
2019-03-16T14:45:43.775Z,99778.53
2019-03-16T14:48:47.235Z,99769.45
2019-03-16T14:51:50.581Z,99773.09
2019-03-16T14:54:58.750Z,99760.50
2019-03-16T14:58:04.943Z,99743.22
2019-03-16T15:01:08.383Z,99750.30
2019-03-16T15:04:11.733Z,99747.95
2019-03-16T15:07:15.041Z,99741.20
2019-03-16T15:10:18.535Z,99743.03
2019-03-16T15:13:21.977Z,99737.11
2019-03-16T15:16:25.442Z,99738.64
2019-03-16T15:19:28.838Z,99729.41
2019-03-16T15:22:34.264Z,99726.69
2019-03-16T15:25:37.738Z,99726.39
2019-03-16T15:28:41.111Z,99722.59
2019-03-16T15:31:44.614Z,99721.78
2019-03-16T15:34:47.956Z,99716.91
2019-03-16T15:37:51.646Z,99712.50
2019-03-16T15:40:54.972Z,99710.03
2019-03-16T15:43:59.873Z,99703.84
2019-03-16T15:47:03.207Z,99696.04
2019-03-16T15:50:08.440Z,99690.92
2019-03-16T15:53:11.789Z,99696.50
2019-03-16T15:56:15.270Z,99690.77
2019-03-16T15:59:18.806Z,99689.98
2019-03-16T16:02:22.218Z,99690.36
2019-03-16T16:05:25.539Z,99692.83
2019-03-16T16:08:29.058Z,99682.65
2019-03-16T16:11:33.270Z,99690.97
2019-03-16T16:14:36.817Z,99673.28
2019-03-16T16:17:40.490Z,99673.28
2019-03-16T16:20:46.496Z,99668.00
2019-03-16T16:23:50.100Z,99675.38
2019-03-16T16:26:56.295Z,99668.70
2019-03-16T16:29:59.784Z,99656.34
2019-03-16T16:33:03.093Z,99656.66
2019-03-16T16:36:08.639Z,99657.98
2019-03-16T16:39:14.280Z,99649.25
2019-03-16T16:42:16.624Z,99653.00
2019-03-16T16:45:21.730Z,99649.61
2019-03-16T16:48:25.443Z,99640.87
2019-03-16T16:51:28.851Z,99633.03
2019-03-16T16:54:33.830Z,99637.86
2019-03-16T16:57:37.151Z,99634.44
2019-03-16T17:00:42.374Z,99623.14
2019-03-16T17:03:46.005Z,99626.73
2019-03-16T17:06:49.579Z,99624.58
2019-03-16T17:09:55.255Z,99619.01
2019-03-16T17:13:00.366Z,99609.69
2019-03-16T17:16:03.759Z,99617.98
2019-03-16T17:19:07.103Z,99608.83
2019-03-16T17:22:10.515Z,99612.98
2019-03-16T17:25:14.890Z,99609.14
2019-03-16T17:28:18.233Z,99602.26
2019-03-16T17:31:21.833Z,99603.87
2019-03-16T17:34:26.780Z,99601.14
2019-03-16T17:37:30.112Z,99600.56
2019-03-16T17:40:33.472Z,99600.47
2019-03-16T17:43:39.942Z,99595.39
2019-03-16T17:46:43.596Z,99597.09
2019-03-16T17:49:47.994Z,99599.64
2019-03-16T17:52:54.175Z,99603.33
2019-03-16T17:55:57.620Z,99590.24
2019-03-16T17:59:01.019Z,99583.62
2019-03-16T18:02:05.989Z,99589.55
2019-03-16T18:05:11.156Z,99597.70
2019-03-16T18:08:14.578Z,99596.84
2019-03-16T18:11:17.983Z,99592.48
2019-03-16T18:14:21.318Z,99593.91
2019-03-16T18:17:27.874Z,99595.80
2019-03-16T18:20:31.306Z,99591.84
2019-03-16T18:23:34.872Z,99592.31
2019-03-16T18:26:38.271Z,99587.80
2019-03-16T18:29:43.265Z,99583.72
2019-03-16T18:32:47.788Z,99575.03
2019-03-16T18:35:51.282Z,99580.68
2019-03-16T18:38:54.706Z,99573.31
2019-03-16T18:41:58.190Z,99576.70
2019-03-16T18:45:01.545Z,99581.31
2019-03-16T18:48:06.502Z,99579.89
2019-03-16T18:51:10.024Z,99570.64
2019-03-16T18:54:13.374Z,99569.19
2019-03-16T18:57:16.749Z,99564.58
2019-03-16T19:00:20.172Z,99556.64
2019-03-16T19:03:23.515Z,99582.09
2019-03-16T19:06:27.036Z,99573.78
2019-03-16T19:09:30.554Z,99567.77
2019-03-16T19:12:34.269Z,99562.48
2019-03-16T19:15:37.696Z,99557.63
2019-03-16T19:18:41.132Z,99571.53
2019-03-16T19:21:44.506Z,99563.45
2019-03-16T19:24:51.189Z,99562.59
2019-03-16T19:27:54.694Z,99567.23
2019-03-16T19:30:58.180Z,99566.55
2019-03-16T19:34:01.644Z,99566.20
2019-03-16T19:37:09.807Z,99558.41
2019-03-16T19:40:22.679Z,99559.52
2019-03-16T19:43:26.062Z,99561.73
2019-03-16T19:46:29.407Z,99544.83
2019-03-16T19:49:32.807Z,99535.95
2019-03-16T19:52:36.267Z,99539.05
2019-03-16T19:55:39.917Z,99546.36
2019-03-16T19:58:44.355Z,99546.23
2019-03-16T20:01:49.660Z,99543.87
2019-03-16T20:04:53.098Z,99541.42
2019-03-16T20:07:59.867Z,99545.30
2019-03-16T20:11:06.770Z,99543.51
2019-03-16T20:14:09.912Z,99540.05
2019-03-16T20:17:16.585Z,99547.38
2019-03-16T20:21:15.703Z,99551.17
2019-03-16T20:31:50.903Z,99537.95
2019-03-16T20:35:07.545Z,99539.06
2019-03-16T20:38:19.940Z,99546.50
2019-03-16T20:42:04.250Z,99534.83
2019-03-16T20:45:29.143Z,99530.15
2019-03-16T20:52:24.799Z,99537.48
2019-03-16T20:55:34.425Z,99540.86
2019-03-16T20:58:50.541Z,99533.77
2019-03-16T21:01:55.515Z,99536.33
2019-03-16T21:05:55.062Z,99546.31
2019-03-16T21:08:26.841Z,99543.27
2019-03-16T21:11:53.464Z,99536.58
2019-03-16T21:15:18.711Z,99535.16
2019-03-16T21:18:34.359Z,99535.41
2019-03-16T21:36:55.986Z,99527.80
2019-03-16T21:40:28.061Z,99524.34
2019-03-16T21:55:25.327Z,99518.27
2019-03-16T22:02:25.525Z,99512.13
2019-03-16T22:05:28.883Z,99515.25
2019-03-16T22:08:32.535Z,99518.52
2019-03-16T22:11:37.869Z,99523.82
2019-03-16T22:14:41.279Z,99515.36
2019-03-16T22:17:44.676Z,99517.70
2019-03-16T22:20:48.173Z,99500.15
2019-03-16T22:23:54.405Z,99503.98
2019-03-16T22:26:57.780Z,99497.14
2019-03-16T22:30:01.150Z,99502.41
2019-03-16T22:33:04.529Z,99497.86
2019-03-16T22:36:07.992Z,99490.52
2019-03-16T22:39:11.373Z,99505.11
2019-03-16T22:42:17.174Z,99495.14
2019-03-16T22:45:20.579Z,99489.33
2019-03-16T22:48:24.856Z,99481.94
2019-03-16T22:51:29.710Z,99486.67
2019-03-16T22:54:33.071Z,99482.70
2019-03-16T22:57:36.412Z,99490.08
2019-03-16T23:00:47.220Z,99498.66
2019-03-16T23:03:50.530Z,99489.58
2019-03-16T23:06:53.858Z,99493.05
2019-03-16T23:09:57.266Z,99481.61
2019-03-16T23:13:00.686Z,99474.77
2019-03-16T23:16:04.138Z,99480.14
2019-03-16T23:19:07.636Z,99475.87
2019-03-16T23:22:11.080Z,99479.58
2019-03-16T23:25:15.754Z,99488.97
2019-03-16T23:28:19.088Z,99489.83
2019-03-16T23:31:22.486Z,99489.15
2019-03-16T23:34:25.801Z,99477.34
2019-03-16T23:37:29.509Z,99476.13
2019-03-16T23:40:32.858Z,99465.48
2019-03-16T23:43:36.348Z,99473.36
2019-03-16T23:46:39.664Z,99466.09
2019-03-16T23:49:43.016Z,99472.61
2019-03-16T23:52:46.399Z,99462.50
2019-03-16T23:55:49.763Z,99462.36
2019-03-16T23:58:53.357Z,99457.44
